Flight Track Log - Related Links

Times and Time Zones

All times are in EDT time to prevent confusion due to time zone crossing. See the FDX1537 flight status page for this flight to view local times or setup timezone preferences in your user account.

Time Position Orientation Groundspeed Altitude Reporting Facility
EDT Latitude Longitude Course Direction KTS MPH feet Rate Location/Type
Fri 05:46:48 AM 35.0167 -89.9833 180° South 159 183 1,000  Level Anchorage Center
Fri 05:48:06 AM 34.9667 -89.9833 180° South 178 205 3,000 1,985 Climbing Anchorage Center
Fri 05:49:04 AM 34.9000 -89.9833 228° Southwest 247 284 5,500 2,718 Climbing Anchorage Center
Fri 05:50:03 AM 34.8500 -90.0500 223° Southwest 260 299 8,300 2,170 Climbing Anchorage Center
Fri 05:51:25 AM 34.7611 -90.1497 225° Southwest 285 328 10,600 1,394 Climbing Memphis Center
Fri 05:52:25 AM 34.6881 -90.2383 226° Southwest 339 390 11,600 1,400 Climbing Memphis Center
Fri 05:53:25 AM 34.6131 -90.3319 226° Southwest 381 438 13,400 1,900 Climbing Memphis Center
Fri 05:54:25 AM 34.5336 -90.4303 220° Southwest 395 455 15,400 2,000 Climbing Memphis Center
Fri 05:55:25 AM 34.4461 -90.5183 219° Southwest 410 472 17,400 1,800 Climbing Memphis Center
Fri 05:56:25 AM 34.3519 -90.6114 216° Southwest 428 493 19,000 1,650 Climbing Memphis Center
Fri 05:57:25 AM 34.2536 -90.6989 218° Southwest 445 512 20,700 1,600 Climbing Memphis Center
Fri 05:58:25 AM 34.1553 -90.7914 217° Southwest 452 520 22,200 1,450 Climbing Memphis Center
Fri 05:59:25 AM 34.0547 -90.8836 217° Southwest 452 520 23,600 1,250 Climbing Memphis Center
Fri 06:00:25 AM 33.9606 -90.9683 217° Southwest 462 532 24,700 1,150 Climbing Memphis Center
Fri 06:01:25 AM 33.8556 -91.0650 217° Southwest 469 540 25,900 1,250 Climbing Memphis Center
Fri 06:02:25 AM 33.7381 -91.1717 216° Southwest 477 549 27,200 1,150 Climbing Memphis Center
Fri 06:03:25 AM 33.6267 -91.2678 215° Southwest 490 564 28,200 1,300 Climbing Memphis Center
Fri 06:04:25 AM 33.5133 -91.3639 217° Southwest 495 570 29,800 1,500 Climbing Memphis Center
Fri 06:05:25 AM 33.4061 -91.4597 217° Southwest 495 570 31,200 1,250 Climbing Memphis Center
Fri 06:06:25 AM 33.2967 -91.5578 215° Southwest 495 570 32,300 1,020 Climbing Memphis Center
Fri 06:08:45 AM 33.0428 -91.7711 216° Southwest 491 565 34,600 822 Climbing Fort Center
Fri 06:10:55 AM 32.8178 -91.9669 217° Southwest 490 564 36,000 442 Climbing Houston Center
Fri 06:11:55 AM 32.7092 -92.0628 215° Southwest 490 564 36,000  Level Houston Center
Fri 06:13:37 AM 32.5070 -92.2284 216° Southwest 482 555 36,000  Level FlightAware
Fri 06:14:08 AM 32.4494 -92.2774 215° Southwest 482 555 36,000  Level FlightAware
Fri 06:14:48 AM 32.3765 -92.3389 216° Southwest 482 555 36,000  Level FlightAware
Fri 06:15:55 AM 32.2614 -92.4364 215° Southwest 490 564 36,000  Level Houston Center
Fri 06:16:55 AM 32.1503 -92.5286 218° Southwest 490 564 36,000 -50 Level Houston Center
Fri 06:17:55 AM 32.0453 -92.6256 217° Southwest 490 564 35,900 -50 Descending Houston Center
Fri 06:18:55 AM 31.9406 -92.7175 226° Southwest 490 564 35,900  Level Houston Center
Fri 06:19:55 AM 31.8478 -92.8289 225° Southwest 484 557 35,900 50 Level Houston Center
Fri 06:20:55 AM 31.7528 -92.9400 225° Southwest 479 551 36,000 50 Climbing Houston Center
Fri 06:21:55 AM 31.6558 -93.0533 225° Southwest 485 558 36,000  Level Houston Center
Fri 06:22:55 AM 31.5608 -93.1664 224° Southwest 490 564 36,000  Level Houston Center
Fri 06:23:55 AM 31.4656 -93.2744 225° Southwest 485 558 36,000  Level Houston Center
Fri 06:24:55 AM 31.3661 -93.3919 224° Southwest 492 566 36,000 37 Level Houston Center
Fri 06:26:39 AM 31.1948 -93.5856 216° Southwest 493 567 36,100  Climbing FlightAware
Fri 06:27:10 AM 31.1388 -93.6332 217° Southwest 492 566 36,000 -98 Descending FlightAware
Fri 06:27:40 AM 31.0840 -93.6810 217° Southwest 490 564 36,000  Level FlightAware
Fri 06:28:10 AM 31.0288 -93.7300 216° Southwest 489 563 36,000  Level FlightAware
Fri 06:28:40 AM 30.9739 -93.7773 217° Southwest 488 562 36,000  Level FlightAware
Fri 06:29:11 AM 30.9182 -93.8259 217° Southwest 487 560 36,000  Level FlightAware
Fri 06:29:42 AM 30.8623 -93.8742 216° Southwest 486 559 36,000  Level FlightAware
Fri 06:30:13 AM 30.8065 -93.9211 217° Southwest 485 558 36,000  Level FlightAware
Fri 06:30:44 AM 30.7508 -93.9694 217° Southwest 485 558 36,000  Level FlightAware
Fri 06:31:15 AM 30.6937 -94.0191 216° Southwest 485 558 36,000  Level FlightAware
Fri 06:31:45 AM 30.6394 -94.0655 216° Southwest 484 557 36,000  Level FlightAware
Fri 06:32:16 AM 30.5846 -94.1119 217° Southwest 484 557 36,000  Level FlightAware
Fri 06:32:47 AM 30.5277 -94.1614 216° Southwest 484 557 36,000  Level FlightAware
Fri 06:33:18 AM 30.4730 -94.2077 217° Southwest 482 555 36,000  Level FlightAware
Fri 06:33:48 AM 30.4189 -94.2551 216° Southwest 481 554 36,000  Level FlightAware
Fri 06:34:19 AM 30.3641 -94.3008 217° Southwest 479 551 36,000  Level FlightAware
Fri 06:34:49 AM 30.3098 -94.3479 216° Southwest 478 550 36,000  Level FlightAware
Fri 06:35:19 AM 30.2562 -94.3935 216° Southwest 478 550 36,000  Level FlightAware
Fri 06:35:49 AM 30.2023 -94.4389 216° Southwest 479 551 36,000  Level FlightAware
Fri 06:36:20 AM 30.1482 -94.4843 216° Southwest 478 550 36,000  Level FlightAware
Fri 06:36:50 AM 30.0941 -94.5296 217° Southwest 477 549 36,000  Level FlightAware
Fri 06:37:20 AM 30.0402 -94.5762 216° Southwest 476 548 36,000  Level FlightAware
Fri 06:37:51 AM 29.9860 -94.6211 217° Southwest 474 545 36,000  Level FlightAware
Fri 06:38:21 AM 29.9321 -94.6674 216° Southwest 472 543 36,000  Level FlightAware
Fri 06:38:51 AM 29.8791 -94.7118 216° Southwest 472 543 36,000  Level FlightAware
Fri 06:39:21 AM 29.8258 -94.7563 216° Southwest 471 542 36,000  Level FlightAware
Fri 06:39:52 AM 29.7726 -94.8009 217° Southwest 472 543 36,000  Level FlightAware
Fri 06:40:22 AM 29.7187 -94.8470 216° Southwest 473 544 36,000  Level FlightAware
Fri 06:40:52 AM 29.6649 -94.8917 216° Southwest 474 545 36,000  Level FlightAware
Fri 06:41:23 AM 29.6113 -94.9363 216° Southwest 476 548 36,000  Level FlightAware
Fri 06:41:53 AM 29.5576 -94.9809 217° Southwest 475 547 36,000  Level FlightAware
Fri 06:42:23 AM 29.5038 -95.0270 215° Southwest 476 548 36,000  Level FlightAware
Fri 06:42:54 AM 29.4488 -95.0716 216° Southwest 476 548 36,000  Level FlightAware
Fri 06:43:26 AM 29.3927 -95.1190 215° Southwest 477 549 36,000 109 Level FlightAware
Fri 06:43:49 AM 29.3506 -95.1532 216° Southwest 476 548 36,100 113 Climbing FlightAware
Fri 06:44:19 AM 29.2960 -95.1991 215° Southwest 476 548 36,100  Level FlightAware
Fri 06:44:50 AM 29.2417 -95.2434 216° Southwest 474 545 36,100 -98 Level FlightAware
Fri 06:45:20 AM 29.1877 -95.2890 216° Southwest 472 543 36,000 -100 Descending FlightAware
Fri 06:45:50 AM 29.1345 -95.3328 212° Southwest 472 543 36,000  Level FlightAware
Fri 06:45:55 AM 29.1275 -95.3378 216° Southwest 481 554 36,000  Level Houston Center
Fri 06:47:02 AM 29.0086 -95.4363 216° Southwest 468 539 36,000  Level FlightAware
Fri 06:47:55 AM 28.9158 -95.5131 216° Southwest 480 552 36,000 -53 Level Houston Center
Fri 06:48:55 AM 28.8133 -95.5994 215° Southwest 475 547 35,900  Descending Houston Center
Fri 06:49:55 AM 28.7064 -95.6856 215° Southwest 475 547 36,000 50 Climbing Houston Center
Fri 06:50:55 AM 28.5994 -95.7714 215° Southwest 475 547 36,000  Level Houston Center
Fri 06:51:55 AM 28.4903 -95.8569 216° Southwest 475 547 36,000  Level Houston Center
Fri 06:53:17 AM 28.3469 -95.9774 215° Southwest 467 537 36,000  Level FlightAware
Fri 06:53:49 AM 28.2898 -96.0234 215° Southwest 472 543 36,000  Level FlightAware
Fri 06:54:20 AM 28.2345 -96.0680 215° Southwest 471 542 36,000  Level FlightAware
Fri 06:54:50 AM 28.1811 -96.1110 215° Southwest 469 540 36,000  Level FlightAware
Fri 06:55:21 AM 28.1270 -96.1539 215° Southwest 470 541 36,000  Level FlightAware
Fri 06:55:51 AM 28.0739 -96.1968 215° Southwest 470 541 36,000  Level FlightAware
Fri 06:56:21 AM 28.0208 -96.2395 216° Southwest 468 539 36,000  Level FlightAware
Fri 06:56:51 AM 27.9672 -96.2836 215° Southwest 468 539 36,000  Level FlightAware
Fri 06:57:22 AM 27.9133 -96.3260 216° Southwest 465 535 36,000  Level FlightAware
Fri 06:57:57 AM 27.8513 -96.3766 215° Southwest 462 532 36,000 -141 Level FlightAware
Fri 06:58:47 AM 27.7654 -96.4453 215° Southwest 453 521 35,800 -1,185 Descending FlightAware
Fri 06:59:18 AM 27.7128 -96.4866 216° Southwest 456 525 34,400 -3,836 Descending FlightAware
Fri 06:59:48 AM 27.6595 -96.5304 215° Southwest 476 548 31,900 -4,300 Descending FlightAware
Fri 07:00:18 AM 27.6042 -96.5738 215° Southwest 476 548 30,100 -3,148 Descending FlightAware
Fri 07:00:49 AM 27.5511 -96.6162 215° Southwest 464 534 28,700 -3,049 Descending FlightAware
Fri 07:01:19 AM 27.4967 -96.6591 215° Southwest 464 534 27,000 -3,148 Descending FlightAware
Fri 07:01:50 AM 27.4431 -96.7020 215° Southwest 456 525 25,500 -2,903 Descending FlightAware
Fri 07:02:21 AM 27.3906 -96.7429 215° Southwest 450 518 24,000 -3,148 Descending FlightAware
Fri 07:02:51 AM 27.3392 -96.7834 215° Southwest 450 518 22,300 -3,094 Descending FlightAware
Fri 07:03:25 AM 27.2816 -96.8295 215° Southwest 449 517 20,700 -2,783 Descending FlightAware
Fri 07:04:00 AM 27.2225 -96.8759 215° Southwest 441 507 19,100 -2,754 Descending FlightAware
Fri 07:04:26 AM 27.1782 -96.9114 215° Southwest 435 501 17,900 -2,737 Descending FlightAware
Fri 07:04:57 AM 27.1287 -96.9501 215° Southwest 428 493 16,500 -1,688 Descending FlightAware
Fri 07:05:30 AM 27.0741 -96.9933 214° Southwest 426 490 16,100 -254 Descending FlightAware
Fri 07:06:55 AM 26.9461 -97.0908 216° Southwest 435 501 16,000 -41 Descending Houston Center
Fri 07:07:55 AM 26.8639 -97.1589 225° Southwest 393 452 16,000 -1,900 Level Houston Center
Fri 07:08:55 AM 26.7789 -97.2525 228° Southwest 381 438 12,200 -2,826 Descending Houston Center
Fri 07:09:56 AM 26.7172 -97.3283 224° Southwest 381 438 10,300 -1,846 Descending Houston Center
Fri 07:10:52 AM 26.6539 -97.3972 224° Southwest 302 348 8,600 -1,664 Descending Houston Center
Fri 07:11:55 AM 26.6014 -97.4547 211° Southwest 291 335 7,000 -1,756 Descending Houston Center
Fri 07:12:55 AM 26.5350 -97.5000 213° Southwest 262 302 5,000 -1,500 Descending Houston Center
Fri 07:13:55 AM 26.4833 -97.5369 211° Southwest 255 293 4,000 -850 Descending Houston Center
Fri 07:14:55 AM 26.4253 -97.5756 212° Southwest 240 276 3,300 -600 Descending Houston Center
Fri 07:15:55 AM 26.3822 -97.6058 211° Southwest 217 250 2,800 -750 Descending Houston Center
Fri 07:16:55 AM 26.3414 -97.6336 210° Southwest 173 199 1,800 -650 Descending Houston Center
Fri 07:17:55 AM 26.3114 -97.6528 188° South 150 173 1,500 -500 Descending Houston Center
Fri 07:18:55 AM 26.2756 -97.6581 181° South 127 146 800 -650 Descending Houston Center
Fri 07:19:55 AM 26.2442 -97.6586 181° South 127 146 200 -600 Descending Houston Center

Login

Don't have an account? Register now (free) for customized features, flight alerts, and more!